createdAt,value
2023-01-18T00:01:22.552Z,1.80
2023-01-18T00:03:50.593Z,1.80
2023-01-18T00:06:19.013Z,1.80
2023-01-18T00:08:46.985Z,1.90
2023-01-18T00:11:18.056Z,1.80
2023-01-18T00:13:46.699Z,1.80
2023-01-18T00:16:17.050Z,1.80
2023-01-18T00:18:45.798Z,1.70
2023-01-18T00:21:16.193Z,1.70
2023-01-18T00:23:44.081Z,1.60
2023-01-18T00:26:14.789Z,1.60
2023-01-18T00:28:42.984Z,1.60
2023-01-18T00:31:20.034Z,1.60
2023-01-18T00:33:49.990Z,1.60
2023-01-18T00:36:18.618Z,1.50
2023-01-18T00:38:52.736Z,1.40
2023-01-18T00:41:22.458Z,1.50
2023-01-18T00:43:50.581Z,1.50
2023-01-18T00:46:22.024Z,1.40
2023-01-18T00:48:50.495Z,1.50
2023-01-18T00:51:22.156Z,1.50
2023-01-18T00:53:51.170Z,1.50
2023-01-18T00:56:22.686Z,1.40
2023-01-18T00:58:51.225Z,1.40
2023-01-18T01:01:19.188Z,1.40
2023-01-18T01:04:08.965Z,1.40
2023-01-18T01:06:47.288Z,1.50
2023-01-18T01:09:15.383Z,1.60
2023-01-18T01:12:03.323Z,1.50
2023-01-18T01:14:49.816Z,1.50
2023-01-18T01:17:36.282Z,1.50
2023-01-18T01:20:24.382Z,1.50
2023-01-18T01:23:10.865Z,1.50
2023-01-18T01:25:57.838Z,1.60
2023-01-18T01:28:26.105Z,1.50
2023-01-18T01:31:05.141Z,1.50
2023-01-18T01:33:37.962Z,1.40
2023-01-18T01:36:15.159Z,1.50
2023-01-18T01:38:43.689Z,1.50
2023-01-18T01:41:21.526Z,1.40
2023-01-18T01:43:52.033Z,1.40
2023-01-18T01:46:19.956Z,1.40
2023-01-18T01:48:49.741Z,1.50
2023-01-18T01:51:20.746Z,1.50
2023-01-18T01:53:49.983Z,1.50
2023-01-18T01:56:21.032Z,1.50
2023-01-18T01:58:55.200Z,1.50
2023-01-18T02:01:23.664Z,1.50
2023-01-18T02:03:51.695Z,1.50
2023-01-18T02:06:32.315Z,1.50
2023-01-18T02:09:09.023Z,1.50
2023-01-18T02:11:37.299Z,1.50
2023-01-18T02:14:11.379Z,1.60
2023-01-18T02:17:06.131Z,1.40
2023-01-18T02:20:13.001Z,1.40
2023-01-18T02:23:08.611Z,1.40
2023-01-18T02:26:26.880Z,1.40
2023-01-18T02:29:08.890Z,1.50
2023-01-18T02:31:55.474Z,1.50
2023-01-18T02:34:49.576Z,1.50
2023-01-18T02:37:31.432Z,1.50
2023-01-18T02:40:20.883Z,1.40
2023-01-18T02:43:08.760Z,1.30
2023-01-18T02:46:03.799Z,1.40
2023-01-18T02:48:38.531Z,1.40
2023-01-18T02:51:06.964Z,1.40
2023-01-18T02:53:44.928Z,1.40
2023-01-18T02:56:18.543Z,1.40
2023-01-18T02:59:02.646Z,1.40
2023-01-18T03:02:13.873Z,1.40
2023-01-18T03:04:55.296Z,1.50
2023-01-18T03:07:27.990Z,1.50
2023-01-18T03:09:57.483Z,1.60
2023-01-18T03:12:52.519Z,1.60
2023-01-18T03:15:29.293Z,1.60
2023-01-18T03:18:15.923Z,1.50
2023-01-18T03:20:52.959Z,1.50
2023-01-18T03:23:42.191Z,1.50
2023-01-18T03:26:17.727Z,1.50
2023-01-18T03:29:18.268Z,1.50
2023-01-18T03:32:11.403Z,1.50
2023-01-18T03:35:04.324Z,1.40
2023-01-18T03:37:34.589Z,1.50
2023-01-18T03:40:07.053Z,1.50
2023-01-18T03:42:48.134Z,1.50
2023-01-18T03:45:32.222Z,1.50
2023-01-18T03:48:00.980Z,1.50
2023-01-18T03:50:47.275Z,1.40
2023-01-18T03:53:20.802Z,1.40
2023-01-18T03:55:54.121Z,1.50
2023-01-18T03:58:27.131Z,1.40
2023-01-18T04:00:55.674Z,1.40
2023-01-18T04:03:23.611Z,1.50
2023-01-18T04:05:51.674Z,1.50
2023-01-18T04:08:22.979Z,1.50
2023-01-18T04:10:50.942Z,1.50
2023-01-18T04:13:18.867Z,1.50
2023-01-18T04:15:47.003Z,1.50
2023-01-18T04:18:14.910Z,1.50
2023-01-18T04:20:42.951Z,1.60
2023-01-18T04:23:12.073Z,1.50
2023-01-18T04:25:41.913Z,1.50
2023-01-18T04:28:09.808Z,1.40
2023-01-18T04:30:37.699Z,1.40
2023-01-18T04:33:05.595Z,1.40
2023-01-18T04:35:33.531Z,1.40
2023-01-18T04:38:01.406Z,1.40
2023-01-18T04:40:29.332Z,1.30
2023-01-18T04:42:57.687Z,1.30
2023-01-18T04:45:25.990Z,1.30
2023-01-18T04:47:53.894Z,1.40
2023-01-18T04:50:21.841Z,1.40
2023-01-18T04:52:49.799Z,1.40
2023-01-18T04:55:18.198Z,1.50
2023-01-18T04:57:46.834Z,1.40
2023-01-18T05:00:16.778Z,1.40
2023-01-18T05:02:44.721Z,1.50
2023-01-18T05:05:12.724Z,1.40
2023-01-18T05:07:40.688Z,1.50
2023-01-18T05:10:08.926Z,1.50
2023-01-18T05:12:36.821Z,1.50
2023-01-18T05:15:05.787Z,1.50
2023-01-18T05:17:36.298Z,1.50
2023-01-18T05:20:07.424Z,1.40
2023-01-18T05:22:38.358Z,1.40
2023-01-18T05:25:10.080Z,1.40
2023-01-18T05:27:38.475Z,1.50
2023-01-18T05:30:14.327Z,1.50
2023-01-18T05:32:42.348Z,1.50
2023-01-18T05:35:10.717Z,1.50
2023-01-18T05:37:38.678Z,1.60
2023-01-18T05:40:07.269Z,1.50
2023-01-18T05:42:35.204Z,1.50
2023-01-18T05:45:03.184Z,1.50
2023-01-18T05:47:31.099Z,1.40
2023-01-18T05:49:59.068Z,1.50
2023-01-18T05:52:28.344Z,1.50
2023-01-18T05:54:59.909Z,1.50
2023-01-18T05:57:28.203Z,1.50
2023-01-18T05:59:56.100Z,1.50
2023-01-18T06:02:26.200Z,1.50
2023-01-18T06:04:59.498Z,1.60
2023-01-18T06:07:27.552Z,1.50
2023-01-18T06:09:55.467Z,1.40
2023-01-18T06:12:23.807Z,1.50
2023-01-18T06:14:52.358Z,1.50
2023-01-18T06:17:20.449Z,1.50
2023-01-18T06:19:48.379Z,1.50
2023-01-18T06:22:17.144Z,1.50
2023-01-18T06:24:47.655Z,1.60
2023-01-18T06:27:18.468Z,1.50
2023-01-18T06:29:46.322Z,1.50
2023-01-18T06:32:18.696Z,1.50
2023-01-18T06:34:47.206Z,1.50
2023-01-18T06:37:15.818Z,1.50
2023-01-18T06:39:44.041Z,1.50
2023-01-18T06:42:24.053Z,1.40
2023-01-18T06:44:52.376Z,1.50
2023-01-18T06:47:21.841Z,1.50
2023-01-18T06:49:49.875Z,1.50
2023-01-18T06:52:19.400Z,1.50
2023-01-18T06:54:49.504Z,1.40
2023-01-18T06:57:17.455Z,1.50
2023-01-18T06:59:45.411Z,1.50
2023-01-18T07:02:17.711Z,1.40
2023-01-18T07:04:46.458Z,1.40
2023-01-18T07:07:17.840Z,1.50
2023-01-18T07:09:45.771Z,1.50
2023-01-18T07:12:13.654Z,1.50
2023-01-18T07:14:45.989Z,1.50
2023-01-18T07:17:29.097Z,1.40
2023-01-18T07:20:08.607Z,1.50
2023-01-18T07:22:42.562Z,1.50
2023-01-18T07:25:14.578Z,1.50
2023-01-18T07:27:46.796Z,1.50
2023-01-18T07:30:17.040Z,1.40
2023-01-18T07:32:56.204Z,1.40
2023-01-18T07:35:26.267Z,1.50
2023-01-18T07:37:56.149Z,1.50
2023-01-18T07:40:26.072Z,1.40
2023-01-18T07:42:59.472Z,1.40
2023-01-18T07:45:29.015Z,1.40
2023-01-18T07:47:58.956Z,1.40
2023-01-18T07:50:29.154Z,1.40
2023-01-18T07:53:01.341Z,1.40
2023-01-18T07:55:36.712Z,1.50
2023-01-18T07:58:04.671Z,1.50
2023-01-18T08:00:32.891Z,1.50
2023-01-18T08:06:14.571Z,1.50
2023-01-18T08:08:42.756Z,1.50
2023-01-18T08:11:12.398Z,1.50
2023-01-18T08:13:40.580Z,1.50
2023-01-18T08:16:10.649Z,1.50
2023-01-18T08:18:38.803Z,1.50
2023-01-18T08:21:09.418Z,1.50
2023-01-18T08:23:38.647Z,1.60
2023-01-18T08:26:08.487Z,1.50
2023-01-18T08:28:37.238Z,1.50
2023-01-18T08:31:20.957Z,1.50
2023-01-18T08:33:51.212Z,1.50
2023-01-18T08:36:22.245Z,1.50
2023-01-18T08:38:52.775Z,1.50
2023-01-18T08:41:21.525Z,1.60
2023-01-18T08:43:53.466Z,1.60
2023-01-18T08:46:21.827Z,1.60
2023-01-18T08:48:54.922Z,1.70
2023-01-18T08:51:24.186Z,1.60
2023-01-18T08:53:58.153Z,1.60
2023-01-18T08:56:27.152Z,1.60
2023-01-18T08:58:55.520Z,1.60
2023-01-18T09:01:24.346Z,1.60
2023-01-18T09:03:56.092Z,1.70
2023-01-18T09:06:24.461Z,1.70
2023-01-18T09:08:52.473Z,1.70
2023-01-18T09:11:20.540Z,1.60
2023-01-18T09:14:00.186Z,1.70
2023-01-18T09:16:29.635Z,1.70
2023-01-18T09:18:58.730Z,1.70
2023-01-18T09:21:31.321Z,1.80
2023-01-18T09:24:00.549Z,1.80
2023-01-18T09:26:29.461Z,1.80
2023-01-18T09:28:57.700Z,1.80
2023-01-18T09:31:28.022Z,1.80
2023-01-18T09:34:17.441Z,1.90
2023-01-18T09:36:46.368Z,2.00
2023-01-18T09:39:14.293Z,2.00
2023-01-18T09:41:45.779Z,2.00
2023-01-18T09:44:22.082Z,2.00
2023-01-18T09:46:55.918Z,2.00
2023-01-18T09:49:33.828Z,2.00
2023-01-18T09:52:34.063Z,2.00
2023-01-18T09:55:05.028Z,2.00
2023-01-18T09:57:45.777Z,2.00
2023-01-18T10:00:27.648Z,2.00
2023-01-18T10:03:03.848Z,1.90
2023-01-18T10:05:42.503Z,1.90
2023-01-18T10:08:14.677Z,1.80
2023-01-18T10:11:03.465Z,1.80
2023-01-18T10:13:40.360Z,1.70
2023-01-18T10:16:15.902Z,1.70
2023-01-18T10:18:46.867Z,1.80
2023-01-18T10:21:52.499Z,1.80
2023-01-18T10:24:30.019Z,1.70
2023-01-18T10:27:11.860Z,1.70
2023-01-18T10:29:47.176Z,1.70
2023-01-18T10:32:21.200Z,1.70
2023-01-18T10:34:52.823Z,1.70
2023-01-18T10:37:40.063Z,1.70
2023-01-18T10:40:11.313Z,1.70
2023-01-18T10:42:50.096Z,1.70
2023-01-18T10:45:30.048Z,1.80
2023-01-18T10:48:04.183Z,1.80
2023-01-18T10:50:38.662Z,1.80
2023-01-18T10:53:24.698Z,1.80
2023-01-18T10:56:20.471Z,1.80
2023-01-18T10:59:02.166Z,1.80
2023-01-18T11:01:34.165Z,1.70
2023-01-18T11:04:08.627Z,1.70
2023-01-18T11:06:57.028Z,1.70
2023-01-18T11:09:39.803Z,1.70
2023-01-18T11:12:35.190Z,1.70
2023-01-18T11:15:15.110Z,1.70
2023-01-18T11:17:58.950Z,1.60
2023-01-18T11:20:37.834Z,1.70
2023-01-18T11:23:26.478Z,1.70
2023-01-18T11:26:02.430Z,1.60
2023-01-18T11:28:40.965Z,1.60
2023-01-18T11:31:13.937Z,1.70
2023-01-18T11:34:07.330Z,1.80
2023-01-18T11:36:37.349Z,1.80
2023-01-18T11:39:28.004Z,1.80
2023-01-18T11:42:32.658Z,1.80
2023-01-18T11:45:18.702Z,1.80
2023-01-18T11:48:05.678Z,1.90
2023-01-18T11:51:09.946Z,2.00
2023-01-18T11:54:15.180Z,1.90
2023-01-18T11:56:48.757Z,2.00
2023-01-18T11:59:36.166Z,2.00
2023-01-18T12:02:26.164Z,1.90
2023-01-18T12:05:02.014Z,1.90
2023-01-18T12:07:58.167Z,1.90
2023-01-18T12:10:28.788Z,1.90
2023-01-18T12:13:20.044Z,1.80
2023-01-18T12:16:09.365Z,1.80
2023-01-18T12:19:16.472Z,1.80
2023-01-18T12:22:24.543Z,1.80
2023-01-18T12:25:34.139Z,1.80
2023-01-18T12:28:15.911Z,1.80
2023-01-18T12:30:49.314Z,1.70
2023-01-18T12:33:38.265Z,1.70
2023-01-18T12:36:30.100Z,1.70
2023-01-18T12:38:58.393Z,1.70
2023-01-18T12:41:35.174Z,1.70
2023-01-18T12:44:23.182Z,1.60
2023-01-18T12:47:11.788Z,1.60
2023-01-18T12:49:49.773Z,1.60
2023-01-18T12:52:22.701Z,1.60
2023-01-18T12:54:56.658Z,1.70
2023-01-18T12:57:26.937Z,1.70
2023-01-18T13:00:22.285Z,1.70
2023-01-18T13:02:55.643Z,1.70
2023-01-18T13:05:29.497Z,1.60
2023-01-18T13:08:30.563Z,1.70
2023-01-18T13:11:22.300Z,1.70
2023-01-18T13:13:56.444Z,1.70
2023-01-18T13:16:56.626Z,1.70
2023-01-18T13:19:30.487Z,1.80
2023-01-18T13:22:07.525Z,1.90
2023-01-18T13:25:03.314Z,1.90
2023-01-18T13:27:32.387Z,1.90
2023-01-18T13:30:17.858Z,1.90
2023-01-18T13:32:48.545Z,1.90
2023-01-18T13:35:33.832Z,2.00
2023-01-18T13:38:13.876Z,2.00
2023-01-18T13:40:53.025Z,2.10
2023-01-18T13:43:41.152Z,2.10
2023-01-18T13:46:10.805Z,2.20
2023-01-18T13:48:59.740Z,2.30
2023-01-18T13:51:43.007Z,2.30
2023-01-18T13:54:16.339Z,2.30
2023-01-18T13:57:07.249Z,2.30
2023-01-18T13:59:51.507Z,2.30
2023-01-18T14:02:33.821Z,2.20
2023-01-18T14:05:25.689Z,2.20
2023-01-18T14:08:00.535Z,2.20
2023-01-18T14:10:36.764Z,2.20
2023-01-18T14:13:11.330Z,2.30
2023-01-18T14:15:50.207Z,2.30
2023-01-18T14:18:27.193Z,2.30
2023-01-18T14:21:04.607Z,2.30
2023-01-18T14:23:41.792Z,2.20
2023-01-18T14:26:22.141Z,2.10
2023-01-18T14:29:09.592Z,2.10
2023-01-18T14:34:39.087Z,2.10
2023-01-18T14:37:35.247Z,2.00
2023-01-18T14:40:16.241Z,2.10
2023-01-18T14:43:19.611Z,2.10
2023-01-18T14:45:55.692Z,2.00
2023-01-18T14:48:26.008Z,2.10
2023-01-18T14:50:56.383Z,2.10
2023-01-18T14:53:51.749Z,2.00
2023-01-18T14:56:35.559Z,2.00
2023-01-18T14:59:24.400Z,2.00
2023-01-18T15:01:57.774Z,2.00
2023-01-18T15:04:39.940Z,1.90
2023-01-18T15:07:14.779Z,1.90
2023-01-18T15:09:45.249Z,1.90
2023-01-18T15:12:18.379Z,1.90
2023-01-18T15:14:49.523Z,1.80
2023-01-18T15:17:23.607Z,1.90
2023-01-18T15:19:57.988Z,1.80
2023-01-18T15:22:35.382Z,1.70
2023-01-18T15:25:03.532Z,1.70
2023-01-18T15:27:34.564Z,1.70
2023-01-18T15:30:03.116Z,1.80
2023-01-18T15:32:33.882Z,1.70
2023-01-18T15:35:03.499Z,1.80
2023-01-18T15:40:19.258Z,1.80
2023-01-18T15:43:05.867Z,1.80
2023-01-18T15:45:40.101Z,1.70
2023-01-18T15:48:33.810Z,1.70
2023-01-18T15:51:08.402Z,1.60
2023-01-18T15:53:44.503Z,1.60
2023-01-18T15:56:24.731Z,1.60
2023-01-18T15:58:56.893Z,1.60
2023-01-18T16:01:36.092Z,1.60
2023-01-18T16:04:20.681Z,1.70
2023-01-18T16:06:48.910Z,1.70
2023-01-18T16:09:17.321Z,1.70
2023-01-18T16:11:53.935Z,1.70
2023-01-18T16:14:33.970Z,1.70
2023-01-18T16:17:11.663Z,1.70
2023-01-18T16:19:51.002Z,1.60
2023-01-18T16:22:33.355Z,1.70
2023-01-18T16:25:08.305Z,1.60
2023-01-18T16:27:55.816Z,1.60
2023-01-18T16:30:28.385Z,1.60
2023-01-18T16:32:56.497Z,1.60
2023-01-18T16:35:25.401Z,1.60
2023-01-18T16:37:53.403Z,1.60
2023-01-18T16:40:24.145Z,1.50
2023-01-18T16:42:58.171Z,1.60
2023-01-18T16:45:26.998Z,1.50
2023-01-18T16:47:54.955Z,1.50
2023-01-18T16:50:23.010Z,1.50
2023-01-18T16:52:50.963Z,1.50
2023-01-18T16:55:21.756Z,1.50
2023-01-18T16:57:51.645Z,1.50
2023-01-18T17:00:24.520Z,1.50
2023-01-18T17:02:53.071Z,1.50
2023-01-18T17:05:21.824Z,1.50
2023-01-18T17:07:51.131Z,1.50
2023-01-18T17:10:30.249Z,1.50
2023-01-18T17:12:59.229Z,1.40
2023-01-18T17:15:29.394Z,1.40
2023-01-18T17:17:57.359Z,1.40
2023-01-18T17:20:30.202Z,1.40
2023-01-18T17:23:01.185Z,1.40
2023-01-18T17:25:29.482Z,1.30
2023-01-18T17:27:59.134Z,1.40
2023-01-18T17:30:27.167Z,1.40
2023-01-18T17:32:58.530Z,1.40
2023-01-18T17:35:28.928Z,1.40
2023-01-18T17:38:04.884Z,1.40
2023-01-18T17:40:43.876Z,1.40
2023-01-18T17:43:17.323Z,1.40
2023-01-18T17:45:59.867Z,1.40
2023-01-18T17:48:29.741Z,1.40
2023-01-18T17:50:57.822Z,1.40
2023-01-18T17:53:26.920Z,1.40
2023-01-18T17:55:54.792Z,1.40
2023-01-18T17:58:25.834Z,1.40
2023-01-18T18:00:56.795Z,1.40
2023-01-18T18:03:28.402Z,1.40
2023-01-18T18:06:00.607Z,1.40
2023-01-18T18:08:28.558Z,1.30
2023-01-18T18:10:57.740Z,1.30
2023-01-18T18:13:25.652Z,1.40
2023-01-18T18:15:53.796Z,1.30
2023-01-18T18:18:23.723Z,1.40
2023-01-18T18:20:58.586Z,1.40
2023-01-18T18:23:28.026Z,1.40
2023-01-18T18:25:57.445Z,1.40
2023-01-18T18:28:26.464Z,1.40
2023-01-18T18:30:54.822Z,1.40
2023-01-18T18:33:23.070Z,1.40
2023-01-18T18:35:52.414Z,1.40
2023-01-18T18:38:23.989Z,1.40
2023-01-18T18:40:52.479Z,1.40
2023-01-18T18:43:21.631Z,1.40
2023-01-18T18:45:49.565Z,1.40
2023-01-18T18:48:17.523Z,1.40
2023-01-18T18:50:46.610Z,1.50
2023-01-18T18:53:16.900Z,1.50
2023-01-18T18:55:45.120Z,1.50
2023-01-18T18:58:13.568Z,1.50
2023-01-18T19:00:41.625Z,1.50
2023-01-18T19:03:09.901Z,1.50
2023-01-18T19:05:38.278Z,1.50
2023-01-18T19:08:09.506Z,1.50
2023-01-18T19:10:37.697Z,1.50
2023-01-18T19:13:08.667Z,1.40
2023-01-18T19:15:41.504Z,1.40
2023-01-18T19:18:12.798Z,1.40
2023-01-18T19:20:40.816Z,1.50
2023-01-18T19:23:09.823Z,1.40
2023-01-18T19:25:41.014Z,1.40
2023-01-18T19:28:09.200Z,1.40
2023-01-18T19:30:37.992Z,1.40
2023-01-18T19:33:06.314Z,1.40
2023-01-18T19:35:42.350Z,1.30
2023-01-18T19:38:10.685Z,1.30
2023-01-18T19:40:38.963Z,1.30
2023-01-18T19:43:07.139Z,1.20
2023-01-18T19:45:35.224Z,1.20
2023-01-18T19:48:03.254Z,1.20
2023-01-18T19:50:31.746Z,1.20
2023-01-18T19:53:00.003Z,1.20
2023-01-18T19:55:28.636Z,1.20
2023-01-18T19:57:58.272Z,1.20
2023-01-18T20:00:27.386Z,1.20
2023-01-18T20:02:55.520Z,1.20
2023-01-18T20:05:24.224Z,1.10
2023-01-18T20:07:52.971Z,1.10
2023-01-18T20:10:21.370Z,1.10
2023-01-18T20:12:50.710Z,1.10
2023-01-18T20:15:19.941Z,1.10
2023-01-18T20:17:47.883Z,1.10
2023-01-18T20:20:24.179Z,1.10
2023-01-18T20:23:01.957Z,1.10
2023-01-18T20:25:30.214Z,1.00
2023-01-18T20:27:59.859Z,1.00
2023-01-18T20:30:28.155Z,1.00
2023-01-18T20:32:56.316Z,1.00
2023-01-18T20:35:24.602Z,1.00
2023-01-18T20:37:53.219Z,1.00
2023-01-18T20:40:21.487Z,1.00
2023-01-18T20:42:49.444Z,0.90
2023-01-18T20:45:17.519Z,0.90
2023-01-18T20:47:45.832Z,0.90
2023-01-18T20:50:14.425Z,0.80
2023-01-18T20:52:42.562Z,0.80
2023-01-18T20:55:14.078Z,0.80
2023-01-18T20:57:42.612Z,0.80
2023-01-18T21:00:13.559Z,0.70
2023-01-18T21:02:42.465Z,0.70
2023-01-18T21:05:10.571Z,0.70
2023-01-18T21:07:40.732Z,0.70
2023-01-18T21:10:14.897Z,0.80
2023-01-18T21:12:43.036Z,0.80
2023-01-18T21:15:11.507Z,0.80
2023-01-18T21:17:40.743Z,0.80
2023-01-18T21:20:09.222Z,0.90
2023-01-18T21:22:39.987Z,0.90
2023-01-18T21:25:08.233Z,0.90
2023-01-18T21:27:37.618Z,0.90
2023-01-18T21:30:05.910Z,0.90
2023-01-18T21:32:33.867Z,0.80
2023-01-18T21:35:02.278Z,0.90
2023-01-18T21:37:30.700Z,0.90
2023-01-18T21:39:59.306Z,0.90
2023-01-18T21:42:46.329Z,0.90
2023-01-18T21:45:35.016Z,0.90
2023-01-18T21:48:09.574Z,0.90
2023-01-18T21:50:59.066Z,0.80
2023-01-18T21:53:45.547Z,0.80
2023-01-18T21:56:13.930Z,0.80
2023-01-18T21:58:54.055Z,0.70
2023-01-18T22:01:27.961Z,0.70
2023-01-18T22:04:15.128Z,0.70
2023-01-18T22:06:43.120Z,0.60
2023-01-18T22:09:11.214Z,0.50
2023-01-18T22:11:39.259Z,0.50
2023-01-18T22:14:09.021Z,0.40
2023-01-18T22:16:37.837Z,0.40
2023-01-18T22:19:06.157Z,0.40
2023-01-18T22:21:34.509Z,0.40
2023-01-18T22:24:02.713Z,0.30
2023-01-18T22:26:31.797Z,0.30
2023-01-18T22:28:59.925Z,0.30
2023-01-18T22:31:28.614Z,0.30
2023-01-18T22:33:57.375Z,0.30
2023-01-18T22:36:25.571Z,0.20
2023-01-18T22:38:55.048Z,0.20
2023-01-18T22:41:28.087Z,0.20
2023-01-18T22:43:59.146Z,0.10
2023-01-18T22:46:27.212Z,0.10
2023-01-18T22:48:55.108Z,0.00
2023-01-18T22:51:24.843Z,-0.10
2023-01-18T22:53:53.103Z,-0.10
2023-01-18T22:56:22.468Z,-0.20
2023-01-18T22:58:50.917Z,-0.30
2023-01-18T23:01:26.133Z,-0.30
2023-01-18T23:03:57.252Z,-0.40
2023-01-18T23:06:25.380Z,-0.40
2023-01-18T23:08:55.326Z,-0.50
2023-01-18T23:11:26.039Z,-0.50
2023-01-18T23:14:17.390Z,-0.50
2023-01-18T23:17:04.079Z,-0.50
2023-01-18T23:19:34.453Z,-0.50
2023-01-18T23:22:07.896Z,-0.60
2023-01-18T23:24:37.575Z,-0.60
2023-01-18T23:27:07.456Z,-0.60
2023-01-18T23:29:35.454Z,-0.70
2023-01-18T23:32:03.522Z,-0.60
2023-01-18T23:34:31.479Z,-0.70
2023-01-18T23:36:59.419Z,-0.70
2023-01-18T23:39:45.940Z,-0.70
2023-01-18T23:42:32.432Z,-0.80
2023-01-18T23:45:18.774Z,-0.80
2023-01-18T23:48:05.269Z,-0.80
2023-01-18T23:50:51.644Z,-0.90
2023-01-18T23:53:38.140Z,-0.90
2023-01-18T23:56:06.193Z,-0.90
2023-01-18T23:58:34.266Z,-1.00
